Newark Liberty International Airport
KEWR : rendu visible

Aérodrome :











RETROUVEZ-NOUS SUR...

 
LOGIN :

S'inscrire | Disclaimer

   EN    FR    IT 

 









Légende :    VFR   VFR Marginal   IFR   IFR Intensif   IFR Très Intensif
Visi : 
Plafond : 
>= 8 km
>= 3000ft
5 à 8 km
1000 à 3000 ft
1500m à 5 km
500 à 1000 ft
800 à 1500m
200 à 500 ft
< 800m
< 200 ft
Symboles :   Orages  Brouillard  Fortes neiges  Fortes précipitations  Vent > 20 kt






- Altitude de l'aérodrome : 18 ft
- Code IATA : EWR


KEWR - Newark Liberty International

DERNIER METAR :
  • 011251Z 32013KT 10SM FEW070 SCT250 15/01 A3027 RMK AO2 SLP250 T01500011 $

METARs EXPIRÉS :
  • 011151Z 31013KT 10SM FEW250 14/01 A3026 RMK AO2 SLP246 T01390011 10139 20106 51016 $
  • 011051Z 30006KT 10SM FEW150 12/02 A3025 RMK AO2 SLP243 T01170017 $

TAF KEWR
Valide du 01 à 12h jusqu'au 02 à 18h UTC


011120Z 0112/0218 35007KT P6SM SKC
FM011300 29010KT P6SM FEW060
FM011700 29012G20KT P6SM SCT060 BKN100
FM020100 29010KT P6SM BKN100
FM020600 27006KT P6SM BKN100
FIR KZNY / Amérique du Nord



MET'MAP, la Météo Aéronautique d'un coup d'oeil ! - Copyright ORBIFLY Décembre 2007 - Disclaimer

ORBIFLY MET'MAP TEAM :

Programmation & Développement : Alexandra Zaïnal
Sur une idée originale de : Baudouin d'Aumeries
Assistance à la programmation : Marc-Olivier Méhu
Soutien technique & logistique : Manuel Goepfert

Contact : metmap@orbifly.com




SOURCES & CREDITS :

   NOAA       Earth
Advisory